Time;durP1;ratioP1;P1;durP2;ratioP2;P2;SDS_P1;SDS_P2;PMS_P1;PMS_P2;Temp;Humidity;BMP_temperature;BMP_pressure;BME280_temperature;BME280_humidity;BME280_pressure;Samples;Min_cycle;Max_cycle;Signal;HPM_P1;HPM_P2
2022/01/04 00:02:21;;;;;;;15.70;9.27;;;10.40;99.90;;;;;;5167470;28;20133;-31
2022/01/04 00:04:52;;;;;;;11.60;8.37;;;10.40;99.90;;;;;;5149891;28;20046;-30
2022/01/04 00:07:22;;;;;;;13.10;8.17;;;10.40;99.90;;;;;;5167229;28;20173;-29
2022/01/04 00:09:54;;;;;;;12.83;8.87;;;10.30;99.90;;;;;;5165760;28;20435;-31
2022/01/04 00:15:14;;;;;;;16.87;10.43;;;10.30;99.90;;;;;;5147108;28;20081;-31
2022/01/04 00:17:45;;;;;;;14.20;9.47;;;10.30;99.90;;;;;;5147067;28;20070;-31
2022/01/04 00:20:16;;;;;;;13.10;7.63;;;10.30;99.90;;;;;;5146933;28;20070;-30
2022/01/04 00:22:48;;;;;;;12.10;8.27;;;10.30;99.90;;;;;;5146620;28;20164;-31
2022/01/04 00:25:19;;;;;;;11.23;7.10;;;10.30;99.90;;;;;;5146767;28;20074;-29
2022/01/04 00:27:50;;;;;;;15.77;10.03;;;10.20;99.90;;;;;;5146999;28;20043;-31
2022/01/04 00:30:21;;;;;;;14.13;9.30;;;10.20;99.90;;;;;;5146888;28;20416;-30
2022/01/04 00:32:52;;;;;;;12.33;8.37;;;10.20;99.90;;;;;;5146496;28;20047;-31
2022/01/04 00:35:23;;;;;;;10.93;8.17;;;10.20;99.90;;;;;;5146759;28;20042;-31
2022/01/04 00:37:54;;;;;;;11.87;7.50;;;10.20;99.90;;;;;;5145356;28;20097;-31
2022/01/04 00:40:25;;;;;;;12.07;7.67;;;10.20;99.90;;;;;;5145492;28;20497;-31
2022/01/04 00:42:58;;;;;;;13.73;8.40;;;10.10;99.90;;;;;;5129364;28;20054;-29
2022/01/04 00:45:32;;;;;;;11.88;7.82;;;10.10;99.90;;;;;;5146237;28;20047;-32
2022/01/04 00:49:09;;;;;;;11.23;8.33;;;10.10;99.90;;;;;;5146444;28;20507;-31
2022/01/04 00:50:59;;;;;;;12.03;8.43;;;10.10;99.90;;;;;;5146048;28;20070;-29
2022/01/04 00:53:29;;;;;;;12.63;8.13;;;10.10;99.90;;;;;;5146602;28;20522;-29
2022/01/04 00:56:00;;;;;;;13.10;7.67;;;10.10;99.90;;;;;;5146218;28;20055;-29
2022/01/04 00:58:31;;;;;;;12.43;8.00;;;10.10;99.90;;;;;;5146332;28;20114;-31
2022/01/04 01:04:56;;;;;;;9.97;6.83;;;10.00;99.90;;;;;;5150130;28;20057;-30
2022/01/04 01:07:27;;;;;;;10.20;6.27;;;10.00;99.90;;;;;;5150443;28;20077;-29
2022/01/04 01:12:29;;;;;;;11.43;7.30;;;10.00;99.90;;;;;;5150495;28;20051;-31
2022/01/04 01:15:00;;;;;;;9.63;6.60;;;10.00;99.90;;;;;;5150442;28;20429;-29
2022/01/04 01:17:31;;;;;;;8.80;6.03;;;9.90;99.90;;;;;;5150183;28;20058;-31
2022/01/04 01:20:04;;;;;;;11.17;6.90;;;9.90;99.90;;;;;;5149253;28;20488;-32
2022/01/04 01:22:35;;;;;;;8.15;6.32;;;9.90;99.90;;;;;;5150069;28;20507;-29
2022/01/04 01:25:09;;;;;;;9.73;6.90;;;9.90;99.90;;;;;;5148846;28;20188;-30
2022/01/04 01:27:41;;;;;;;11.80;6.50;;;9.90;99.90;;;;;;5149769;28;20050;-31
2022/01/04 01:30:13;;;;;;;8.73;6.30;;;9.90;99.90;;;;;;5150186;28;20122;-30
2022/01/04 01:32:44;;;;;;;9.53;6.40;;;9.80;99.90;;;;;;5150304;28;20459;-31
2022/01/04 01:39:01;;;;;;;11.17;6.13;;;9.80;99.90;;;;;;5149389;28;20126;-30
2022/01/04 01:41:33;;;;;;;10.13;6.30;;;9.80;99.90;;;;;;5149625;28;20559;-30
2022/01/04 01:44:04;;;;;;;11.67;7.30;;;9.80;99.90;;;;;;5148450;28;20059;-31
2022/01/04 01:46:35;;;;;;;11.90;6.90;;;9.80;99.90;;;;;;5149659;28;20127;-29
2022/01/04 01:49:06;;;;;;;9.87;6.40;;;9.80;99.90;;;;;;5149841;28;20077;-30
2022/01/04 01:51:37;;;;;;;11.47;6.90;;;9.80;99.90;;;;;;5149538;28;20058;-31
2022/01/04 01:54:08;;;;;;;10.37;6.77;;;9.80;99.90;;;;;;5148408;28;20050;-30
2022/01/04 02:00:26;;;;;;;10.33;6.20;;;9.80;99.90;;;;;;5149148;28;20603;-29
2022/01/04 02:02:57;;;;;;;10.67;7.43;;;9.80;99.90;;;;;;5149292;28;20531;-32
2022/01/04 02:05:28;;;;;;;10.00;6.30;;;9.90;99.90;;;;;;5149366;28;20130;-31
2022/01/04 02:08:00;;;;;;;10.47;6.67;;;9.90;99.90;;;;;;5149409;28;20535;-29
2022/01/04 02:10:31;;;;;;;9.40;6.33;;;9.90;99.90;;;;;;5154623;28;20058;-30
2022/01/04 02:13:03;;;;;;;12.13;7.77;;;9.90;99.90;;;;;;5152176;28;20049;-31
2022/01/04 02:15:34;;;;;;;10.40;6.97;;;9.90;99.90;;;;;;5169392;28;20101;-31
2022/01/04 02:18:06;;;;;;;9.57;6.33;;;9.90;99.90;;;;;;5151952;28;20046;-29
2022/01/04 02:20:36;;;;;;;10.00;7.37;;;9.90;99.90;;;;;;5152179;28;20092;-29
2022/01/04 02:23:08;;;;;;;11.00;6.93;;;9.90;99.90;;;;;;5169148;28;20074;-30
2022/01/04 02:25:39;;;;;;;9.80;6.27;;;9.90;99.90;;;;;;5168860;28;20480;-29
2022/01/04 02:28:10;;;;;;;10.57;6.47;;;9.90;99.90;;;;;;5151957;28;20046;-30
2022/01/04 02:30:41;;;;;;;7.97;5.93;;;9.90;99.90;;;;;;5151792;28;20053;-31
2022/01/04 02:33:12;;;;;;;9.90;6.77;;;9.90;99.90;;;;;;5169098;28;20042;-31
2022/01/04 02:35:43;;;;;;;10.80;6.80;;;9.90;99.90;;;;;;5152198;28;20048;-31
2022/01/04 02:38:14;;;;;;;16.27;10.73;;;9.90;99.90;;;;;;5169004;28;20397;-29
2022/01/04 02:40:45;;;;;;;10.17;6.80;;;9.90;99.90;;;;;;5151699;28;20056;-31
2022/01/04 02:43:16;;;;;;;16.77;12.37;;;9.90;99.90;;;;;;5168840;28;20125;-31
2022/01/04 02:45:47;;;;;;;13.77;8.80;;;9.90;99.90;;;;;;5168783;28;20180;-31
2022/01/04 02:48:19;;;;;;;11.37;6.70;;;9.90;99.90;;;;;;5168671;28;20080;-30
2022/01/04 02:50:52;;;;;;;10.53;6.47;;;9.90;99.90;;;;;;5168562;28;20121;-29
2022/01/04 02:53:23;;;;;;;9.73;6.80;;;9.90;99.90;;;;;;5168694;28;20042;-29
2022/01/04 02:55:54;;;;;;;11.93;6.40;;;9.90;99.90;;;;;;5168461;28;20069;-30
2022/01/04 02:58:25;;;;;;;9.87;6.60;;;9.90;99.90;;;;;;5168888;28;20121;-30
2022/01/04 03:00:56;;;;;;;9.80;6.67;;;9.90;99.90;;;;;;5168483;28;20497;-30
2022/01/04 03:03:27;;;;;;;9.43;6.20;;;9.90;99.90;;;;;;5151433;28;20089;-29
2022/01/04 03:05:58;;;;;;;8.87;5.87;;;9.90;99.90;;;;;;5168226;28;20085;-28
2022/01/04 03:08:29;;;;;;;8.50;6.03;;;9.90;99.90;;;;;;5151061;28;20491;-29
2022/01/04 03:11:00;;;;;;;9.37;6.13;;;9.90;99.90;;;;;;5158307;28;20070;-30
2022/01/04 03:13:31;;;;;;;9.83;6.83;;;9.90;99.90;;;;;;5148181;28;20528;-32
2022/01/04 03:16:02;;;;;;;9.07;6.30;;;9.80;99.90;;;;;;5148195;28;20170;-31
2022/01/04 03:18:34;;;;;;;9.33;5.63;;;9.80;99.90;;;;;;5148151;28;20043;-31
2022/01/04 03:21:05;;;;;;;8.10;5.80;;;9.80;99.90;;;;;;5148034;28;20051;-30
2022/01/04 03:23:36;;;;;;;10.10;6.43;;;9.80;99.90;;;;;;5146333;28;20077;-31
2022/01/04 03:26:07;;;;;;;9.93;6.37;;;9.80;99.90;;;;;;5148019;28;20121;-29
2022/01/04 03:28:40;;;;;;;8.53;6.30;;;9.80;99.90;;;;;;5147014;28;20058;-30
2022/01/04 03:31:11;;;;;;;11.88;6.93;;;9.80;99.90;;;;;;5147838;28;20054;-29
2022/01/04 03:33:42;;;;;;;10.90;6.97;;;9.80;99.90;;;;;;5147713;28;20154;-31
2022/01/04 03:36:14;;;;;;;11.67;7.37;;;9.80;99.90;;;;;;5146521;28;20125;-31
2022/01/04 03:38:45;;;;;;;8.83;6.10;;;9.80;99.90;;;;;;5130594;28;20133;-31
2022/01/04 03:41:17;;;;;;;10.27;6.03;;;9.80;99.90;;;;;;5147954;28;20126;-31
2022/01/04 03:43:48;;;;;;;10.80;6.60;;;9.80;99.90;;;;;;5147561;28;20506;-31
2022/01/04 03:46:19;;;;;;;9.00;5.47;;;9.80;99.90;;;;;;5147590;28;20043;-29
2022/01/04 03:48:51;;;;;;;10.50;7.03;;;9.80;99.90;;;;;;5129627;28;20063;-31
2022/01/04 03:51:21;;;;;;;7.70;5.63;;;9.80;99.90;;;;;;5146892;28;20046;-29
2022/01/04 03:53:53;;;;;;;9.30;5.40;;;9.90;99.90;;;;;;5145595;28;20054;-31
2022/01/04 03:56:23;;;;;;;8.77;5.70;;;9.80;99.90;;;;;;5146123;28;20399;-31
2022/01/04 03:58:55;;;;;;;8.33;6.30;;;9.80;99.90;;;;;;5147369;28;20047;-31
2022/01/04 04:01:25;;;;;;;8.37;5.10;;;9.80;99.90;;;;;;5146904;28;20140;-29
2022/01/04 04:03:57;;;;;;;9.47;5.33;;;9.80;99.90;;;;;;5145922;28;20496;-31
2022/01/04 04:06:28;;;;;;;9.17;5.40;;;9.80;99.90;;;;;;5146425;28;20070;-32
2022/01/04 04:08:59;;;;;;;9.50;5.93;;;9.80;99.90;;;;;;5145324;28;20051;-29
2022/01/04 04:11:30;;;;;;;8.83;5.67;;;9.80;99.90;;;;;;5159592;28;20396;-31
2022/01/04 04:14:01;;;;;;;8.63;5.40;;;9.90;99.90;;;;;;5166947;28;20392;-31
2022/01/04 04:16:33;;;;;;;10.23;6.37;;;9.90;99.90;;;;;;5166871;28;20042;-30
2022/01/04 04:19:04;;;;;;;10.33;5.87;;;9.90;99.90;;;;;;5166965;28;20125;-31
2022/01/04 04:21:35;;;;;;;9.93;5.33;;;10.10;99.90;;;;;;5149283;28;20117;-33
2022/01/04 04:24:06;;;;;;;10.13;6.37;;;10.60;99.90;;;;;;5150229;28;20460;-31
2022/01/04 04:26:37;;;;;;;9.80;5.30;;;10.90;99.90;;;;;;5167327;28;20053;-31
2022/01/04 04:29:09;;;;;;;9.77;5.20;;;11.20;99.90;;;;;;5167052;28;20485;-28
2022/01/04 04:31:40;;;;;;;12.83;7.40;;;11.50;99.90;;;;;;5166637;28;20082;-27
2022/01/04 04:34:11;;;;;;;11.83;6.17;;;11.90;99.90;;;;;;5166146;28;20126;-28
2022/01/04 04:36:42;;;;;;;9.73;6.13;;;12.20;99.90;;;;;;5165644;28;20557;-29
2022/01/04 04:39:13;;;;;;;9.17;5.43;;;11.50;99.90;;;;;;5166543;28;20053;-31
2022/01/04 04:41:44;;;;;;;6.83;4.97;;;11.10;99.90;;;;;;5166080;28;20046;-30
2022/01/04 04:44:15;;;;;;;8.13;5.70;;;11.00;99.90;;;;;;5166762;28;20097;-31
2022/01/04 04:46:46;;;;;;;7.67;5.43;;;10.90;99.90;;;;;;5149283;28;20042;-29
2022/01/04 04:49:17;;;;;;;8.53;5.63;;;10.80;99.90;;;;;;5148772;28;20567;-29
2022/01/04 04:51:48;;;;;;;8.63;6.33;;;10.80;99.90;;;;;;5129230;28;20133;-29
2022/01/04 04:54:20;;;;;;;8.40;5.90;;;10.70;99.90;;;;;;5140049;28;20047;-32
2022/01/04 04:56:50;;;;;;;9.40;5.83;;;10.60;99.90;;;;;;5165580;28;20054;-31
2022/01/04 04:59:22;;;;;;;7.93;5.37;;;10.60;99.90;;;;;;5166487;28;20042;-29
2022/01/04 05:01:53;;;;;;;9.17;5.53;;;10.50;99.90;;;;;;5164774;28;20400;-31
2022/01/04 05:04:24;;;;;;;7.43;5.37;;;10.50;99.90;;;;;;5132595;28;20453;-30
2022/01/04 05:06:55;;;;;;;7.17;4.70;;;10.50;99.90;;;;;;5149229;28;20400;-30
2022/01/04 05:09:26;;;;;;;8.27;5.37;;;10.50;99.90;;;;;;5166326;28;20100;-32
2022/01/04 05:11:57;;;;;;;8.00;5.30;;;10.50;99.90;;;;;;5145059;28;20066;-30
2022/01/04 05:14:28;;;;;;;6.60;5.13;;;10.50;99.90;;;;;;5146035;28;20046;-32
2022/01/04 05:16:59;;;;;;;7.37;5.03;;;10.60;99.90;;;;;;5146295;28;20192;-30
2022/01/04 05:19:30;;;;;;;7.27;5.60;;;10.60;99.90;;;;;;5146335;28;20396;-30
2022/01/04 05:22:01;;;;;;;9.40;6.73;;;10.70;99.90;;;;;;5146310;28;20039;-31
2022/01/04 05:24:32;;;;;;;8.77;6.27;;;10.70;99.90;;;;;;5145635;28;20042;-31
2022/01/04 05:27:04;;;;;;;9.07;6.13;;;10.70;99.90;;;;;;5145285;28;20047;-31
2022/01/04 05:29:35;;;;;;;9.67;6.80;;;10.70;99.90;;;;;;5145288;28;20125;-31
2022/01/04 05:32:06;;;;;;;8.40;6.27;;;10.60;99.90;;;;;;5146630;28;20074;-29
2022/01/04 05:34:37;;;;;;;10.13;6.80;;;10.60;99.90;;;;;;5146280;28;20081;-31
2022/01/04 05:37:08;;;;;;;9.27;6.17;;;10.60;99.90;;;;;;5144845;28;20070;-29
2022/01/04 05:39:39;;;;;;;7.90;5.90;;;10.50;99.90;;;;;;5146480;28;20531;-31
2022/01/04 05:42:10;;;;;;;9.47;6.67;;;10.50;99.90;;;;;;5146397;28;20166;-29
2022/01/04 05:44:41;;;;;;;10.50;6.50;;;10.50;99.90;;;;;;5146730;28;20612;-31
2022/01/04 05:47:12;;;;;;;8.40;5.80;;;10.50;99.90;;;;;;5147162;28;20153;-31
2022/01/04 05:49:43;;;;;;;7.00;5.27;;;10.40;99.90;;;;;;5149781;28;20049;-30
2022/01/04 05:52:14;;;;;;;8.03;5.17;;;10.40;99.90;;;;;;5148870;28;20075;-30
2022/01/04 05:54:47;;;;;;;8.27;5.37;;;10.30;99.90;;;;;;5150011;28;20515;-30
2022/01/04 05:57:18;;;;;;;8.77;6.28;;;10.30;99.90;;;;;;5148481;28;20543;-31
2022/01/04 05:59:49;;;;;;;8.93;5.93;;;10.30;99.90;;;;;;5148471;28;20043;-31
2022/01/04 06:02:20;;;;;;;9.07;5.63;;;10.30;99.90;;;;;;5149749;28;20051;-31
2022/01/04 06:04:52;;;;;;;7.53;5.23;;;10.20;99.90;;;;;;5149244;28;20058;-31
2022/01/04 06:07:23;;;;;;;8.30;5.80;;;10.20;99.90;;;;;;5149519;28;20047;-31
2022/01/04 06:09:54;;;;;;;7.27;5.87;;;10.20;99.90;;;;;;5148225;28;20066;-31
2022/01/04 06:15:08;;;;;;;10.67;5.90;;;10.10;99.90;;;;;;5148546;28;20069;-29
2022/01/04 06:17:42;;;;;;;9.33;5.90;;;10.10;99.90;;;;;;5149507;28;20101;-30
2022/01/04 06:20:15;;;;;;;11.20;6.10;;;10.10;99.90;;;;;;5148123;28;20053;-31
2022/01/04 06:22:45;;;;;;;7.82;6.18;;;10.10;99.90;;;;;;5148111;28;20047;-29
2022/01/04 06:25:18;;;;;;;8.57;6.53;;;10.10;99.90;;;;;;5147820;28;20370;-29
2022/01/04 06:27:50;;;;;;;8.60;6.07;;;10.00;99.90;;;;;;5148290;28;20051;-29
2022/01/04 06:30:22;;;;;;;7.80;5.63;;;10.10;99.90;;;;;;5149110;28;20126;-31
2022/01/04 06:32:53;;;;;;;10.37;5.60;;;10.00;99.90;;;;;;5163933;28;20047;-31
2022/01/04 06:35:25;;;;;;;12.20;7.10;;;10.00;99.90;;;;;;5148560;28;20599;-30
2022/01/04 06:37:56;;;;;;;9.90;5.80;;;10.00;99.90;;;;;;5148874;28;20051;-31
2022/01/04 06:40:27;;;;;;;12.33;6.20;;;10.10;99.90;;;;;;5148099;28;20118;-32
2022/01/04 06:42:58;;;;;;;12.40;6.57;;;10.50;99.90;;;;;;5147635;28;20094;-30
2022/01/04 06:45:29;;;;;;;9.27;5.67;;;10.80;99.90;;;;;;5144041;28;20126;-31
2022/01/04 06:48:00;;;;;;;11.77;6.07;;;11.20;99.90;;;;;;5128092;29;20054;-30
2022/01/04 06:50:31;;;;;;;10.60;6.77;;;11.40;99.90;;;;;;5128423;29;20481;-31
2022/01/04 06:53:02;;;;;;;9.10;6.30;;;11.70;99.90;;;;;;5128442;29;20051;-32
2022/01/04 06:55:34;;;;;;;10.93;5.50;;;11.90;99.90;;;;;;5128307;29;20039;-32
2022/01/04 06:58:07;;;;;;;12.00;7.00;;;12.00;99.90;;;;;;5127408;28;20048;-31
2022/01/04 07:00:40;;;;;;;9.77;6.80;;;12.20;99.90;;;;;;5111785;29;20058;-29
2022/01/04 07:03:12;;;;;;;10.40;7.38;;;12.30;99.90;;;;;;5127868;29;20106;-27
2022/01/04 07:05:43;;;;;;;12.93;8.60;;;12.40;99.90;;;;;;5128051;29;20551;-29
2022/01/04 07:08:14;;;;;;;15.30;9.67;;;12.50;99.90;;;;;;5127043;29;20047;-29
2022/01/04 07:10:48;;;;;;;15.77;10.10;;;12.60;99.90;;;;;;5135219;28;20058;-28
2022/01/04 07:13:19;;;;;;;19.27;11.17;;;12.60;99.90;;;;;;5147978;28;20051;-29
2022/01/04 07:15:50;;;;;;;18.73;12.60;;;12.70;99.90;;;;;;5148075;28;20511;-29
2022/01/04 07:18:26;;;;;;;19.23;11.83;;;12.80;99.90;;;;;;5146767;28;20522;-27
2022/01/04 07:20:58;;;;;;;15.73;11.20;;;12.80;99.90;;;;;;5147686;28;20133;-29
2022/01/04 07:23:29;;;;;;;15.27;10.20;;;12.90;99.90;;;;;;5130342;28;20516;-28
2022/01/04 07:26:03;;;;;;;18.30;10.20;;;12.90;99.90;;;;;;5155464;28;20093;-27
2022/01/04 07:28:34;;;;;;;;;;;12.90;99.90;;;;;;5168290;28;20081;-27
2022/01/04 07:31:05;;;;;;;26.67;19.20;;;13.00;99.90;;;;;;5168102;28;19971;-28
2022/01/04 07:33:37;;;;;;;25.93;19.90;;;13.00;99.90;;;;;;5167687;28;20066;-29
2022/01/04 07:36:08;;;;;;;24.60;19.80;;;13.00;99.90;;;;;;5151135;28;20042;-29
2022/01/04 07:38:39;;;;;;;18.50;14.70;;;13.10;99.90;;;;;;5150761;28;20107;-28
2022/01/04 07:41:10;;;;;;;21.70;16.13;;;13.20;99.90;;;;;;5150533;28;20066;-28
2022/01/04 07:43:41;;;;;;;45.77;31.97;;;13.30;99.90;;;;;;5150337;28;20488;-28
2022/01/04 07:46:12;;;;;;;;;;;13.40;99.90;;;;;;5167631;28;20066;-27
2022/01/04 07:48:43;;;;;;;62.37;44.80;;;13.50;99.90;;;;;;5167501;28;19974;-27
2022/01/04 07:51:17;;;;;;;28.90;24.00;;;13.60;99.90;;;;;;5167337;28;20042;-28
2022/01/04 07:53:48;;;;;;;28.43;22.37;;;13.70;99.90;;;;;;5167336;28;20061;-28
2022/01/04 07:56:19;;;;;;;26.17;20.17;;;13.70;99.90;;;;;;5167159;28;20531;-27
2022/01/04 07:58:54;;;;;;;21.38;14.80;;;13.70;99.90;;;;;;5167138;28;20049;-27
2022/01/04 08:01:26;;;;;;;17.67;12.63;;;13.80;99.90;;;;;;5150220;28;20046;-27
2022/01/04 08:03:57;;;;;;;18.87;14.23;;;13.90;99.90;;;;;;5134688;28;20487;-28
2022/01/04 08:06:28;;;;;;;15.47;12.93;;;13.90;99.90;;;;;;5168617;28;20472;-28
2022/01/04 08:08:59;;;;;;;17.60;11.37;;;13.90;99.90;;;;;;5199489;28;20132;-28
2022/01/04 08:11:30;;;;;;;16.10;12.57;;;13.90;99.90;;;;;;5205317;28;20061;-28
2022/01/04 08:14:01;;;;;;;16.53;12.03;;;13.90;99.90;;;;;;5187671;28;20056;-29
2022/01/04 08:16:32;;;;;;;21.73;16.93;;;13.90;99.90;;;;;;5205544;28;20050;-27
2022/01/04 08:19:04;;;;;;;41.80;26.50;;;13.90;99.90;;;;;;5205301;28;20092;-29
2022/01/04 08:21:38;;;;;;;53.83;33.10;;;14.00;99.90;;;;;;5189247;28;20057;-29
2022/01/04 08:24:27;;;;;;;41.17;25.93;;;14.00;99.90;;;;;;5195568;28;20037;-29
2022/01/04 08:27:00;;;;;;;25.93;16.77;;;14.00;99.90;;;;;;5188295;28;20058;-28
2022/01/04 08:29:31;;;;;;;34.33;20.97;;;14.00;99.90;;;;;;5204828;28;20077;-29
2022/01/04 08:32:03;;;;;;;32.10;21.30;;;14.00;99.90;;;;;;5204757;28;20072;-27
2022/01/04 08:34:34;;;;;;;41.03;28.60;;;14.00;99.90;;;;;;5205154;28;20049;-27
2022/01/04 08:37:05;;;;;;;26.53;18.40;;;14.00;99.90;;;;;;5205031;28;20081;-29
2022/01/04 08:39:36;;;;;;;19.47;14.47;;;14.00;99.90;;;;;;5201233;28;20470;-28
2022/01/04 08:42:07;;;;;;;23.43;15.90;;;14.00;99.90;;;;;;5167063;28;20050;-27
2022/01/04 08:44:39;;;;;;;20.87;15.53;;;14.00;99.90;;;;;;5150600;28;20073;-29
2022/01/04 08:47:10;;;;;;;19.33;13.70;;;14.00;99.90;;;;;;5184382;28;20068;-28
2022/01/04 08:49:41;;;;;;;22.40;16.20;;;14.00;99.90;;;;;;5198430;28;20041;-28
2022/01/04 08:52:13;;;;;;;16.93;13.23;;;14.00;99.90;;;;;;5167088;28;20050;-29
2022/01/04 08:54:44;;;;;;;22.43;17.77;;;14.00;99.90;;;;;;5184355;28;20045;-27
2022/01/04 08:57:15;;;;;;;17.07;11.87;;;14.00;99.90;;;;;;5150687;28;20495;-30
2022/01/04 08:59:47;;;;;;;14.73;10.23;;;13.90;99.90;;;;;;5184550;28;20127;-28
2022/01/04 09:02:21;;;;;;;17.03;11.73;;;13.90;99.90;;;;;;5167471;28;20412;-29
2022/01/04 09:04:52;;;;;;;12.67;9.33;;;13.90;99.90;;;;;;5166797;28;20073;-29
2022/01/04 09:07:23;;;;;;;13.83;10.47;;;13.90;99.90;;;;;;5171200;28;20400;-28
2022/01/04 09:09:55;;;;;;;15.13;10.90;;;13.90;99.90;;;;;;5204464;28;20100;-29
2022/01/04 09:12:37;;;;;;;11.33;9.27;;;13.90;99.90;;;;;;5161569;28;20050;-28
2022/01/04 09:15:31;;;;;;;17.23;11.67;;;13.90;99.90;;;;;;5145730;28;20811;-29
2022/01/04 09:20:54;;;;;;;13.37;9.63;;;13.90;99.90;;;;;;5162132;28;20051;-28
2022/01/04 09:23:25;;;;;;;13.20;9.03;;;13.90;99.90;;;;;;5165798;28;20074;-28
2022/01/04 09:25:56;;;;;;;11.90;9.20;;;13.90;99.90;;;;;;5149300;28;20126;-30
2022/01/04 09:28:27;;;;;;;12.57;9.07;;;13.90;99.90;;;;;;5151611;28;20048;-29
2022/01/04 09:30:58;;;;;;;11.13;9.37;;;13.90;99.90;;;;;;5167686;28;20502;-29
2022/01/04 09:33:29;;;;;;;13.37;10.20;;;13.90;99.90;;;;;;5136004;28;20102;-29
2022/01/04 09:36:00;;;;;;;12.50;9.73;;;13.90;99.90;;;;;;5151923;28;20161;-29
2022/01/04 09:38:31;;;;;;;18.10;10.07;;;13.90;99.90;;;;;;5167913;28;20054;-28
2022/01/04 09:41:02;;;;;;;13.77;8.63;;;13.90;99.90;;;;;;5167888;28;20069;-28
2022/01/04 09:43:36;;;;;;;13.00;9.20;;;13.90;99.90;;;;;;5151801;28;20077;-29
2022/01/04 09:46:07;;;;;;;13.63;10.07;;;13.80;99.90;;;;;;5167704;28;20042;-29
2022/01/04 09:48:38;;;;;;;14.27;9.97;;;13.90;99.90;;;;;;5135574;28;20082;-28
2022/01/04 09:51:10;;;;;;;12.97;9.00;;;13.90;99.90;;;;;;5167596;28;20081;-29
2022/01/04 09:53:41;;;;;;;14.63;10.85;;;13.90;99.90;;;;;;5120207;28;20053;-28
2022/01/04 09:56:12;;;;;;;12.60;9.47;;;13.90;99.90;;;;;;5188368;28;20041;-29
2022/01/04 09:58:43;;;;;;;13.07;9.73;;;13.90;99.90;;;;;;5210586;28;20046;-28
2022/01/04 10:01:36;;;;;;;13.67;10.27;;;13.90;99.90;;;;;;5187512;28;20064;-29
2022/01/04 10:04:07;;;;;;;13.37;9.87;;;13.90;99.90;;;;;;5164380;28;20050;-28
2022/01/04 10:06:39;;;;;;;12.50;9.77;;;14.00;99.90;;;;;;5178390;28;20050;-29
2022/01/04 10:09:13;;;;;;;15.13;10.37;;;14.00;99.90;;;;;;5187535;28;20041;-29
2022/01/04 10:11:47;;;;;;;13.05;9.38;;;14.00;99.90;;;;;;5144227;28;20074;-29
2022/01/04 10:14:39;;;;;;;14.37;10.37;;;14.00;99.90;;;;;;5144485;28;20085;-29
2022/01/04 10:17:16;;;;;;;13.90;11.00;;;14.00;99.90;;;;;;5144573;28;20101;-28
2022/01/04 10:19:53;;;;;;;13.83;11.17;;;14.00;99.90;;;;;;5129184;28;20055;-31
2022/01/04 10:22:34;;;;;;;14.27;10.77;;;14.00;99.90;;;;;;5128397;28;20062;-30
2022/01/04 10:25:05;;;;;;;14.80;10.57;;;14.10;99.90;;;;;;5128847;28;20062;-28
2022/01/04 10:27:46;;;;;;;14.27;10.60;;;14.10;99.90;;;;;;5144347;28;20067;-29
2022/01/04 10:30:22;;;;;;;14.00;10.33;;;14.10;99.90;;;;;;5128524;28;20070;-28
2022/01/04 10:32:54;;;;;;;13.93;10.33;;;14.20;99.90;;;;;;5121464;28;20086;-30
2022/01/04 10:35:36;;;;;;;12.60;9.87;;;14.20;99.90;;;;;;5126532;29;20130;-28
2022/01/04 10:38:12;;;;;;;15.37;10.70;;;14.20;99.90;;;;;;5110896;29;20058;-28
2022/01/04 10:40:56;;;;;;;14.20;10.50;;;14.20;99.90;;;;;;5126666;29;20062;-28
2022/01/04 10:43:29;;;;;;;13.60;10.60;;;14.20;99.90;;;;;;5111366;29;20051;-28
2022/01/04 10:46:03;;;;;;;13.93;10.43;;;14.20;99.90;;;;;;5111473;29;20143;-28
2022/01/04 10:48:43;;;;;;;15.40;10.70;;;14.20;99.90;;;;;;5138309;28;20420;-29
2022/01/04 10:51:21;;;;;;;14.40;11.47;;;14.20;99.90;;;;;;5167713;28;20046;-28
2022/01/04 10:54:06;;;;;;;15.93;11.77;;;14.20;99.90;;;;;;5168619;28;20047;-28
2022/01/04 10:56:38;;;;;;;15.73;10.90;;;14.20;99.90;;;;;;5167735;28;20053;-29
2022/01/04 10:59:10;;;;;;;17.97;12.37;;;14.30;99.90;;;;;;5167279;28;20046;-28
2022/01/04 11:01:44;;;;;;;15.00;11.45;;;14.20;99.90;;;;;;5151323;28;20492;-28
2022/01/04 11:04:19;;;;;;;15.82;11.93;;;14.20;99.90;;;;;;5167255;28;20043;-28
2022/01/04 11:06:58;;;;;;;16.80;13.47;;;14.20;99.90;;;;;;5168657;28;20428;-29
2022/01/04 11:09:30;;;;;;;20.83;16.93;;;14.20;99.90;;;;;;5168172;28;20057;-30
2022/01/04 11:12:03;;;;;;;20.60;13.67;;;14.20;99.90;;;;;;5162949;28;20058;-29
2022/01/04 11:14:43;;;;;;;17.00;12.80;;;14.20;99.90;;;;;;5146827;28;20049;-28
2022/01/04 11:17:37;;;;;;;16.07;12.17;;;14.20;99.90;;;;;;5146389;28;20055;-28
2022/01/04 11:20:14;;;;;;;16.10;12.27;;;14.20;99.90;;;;;;5149103;28;20050;-30
2022/01/04 11:22:49;;;;;;;14.03;11.77;;;14.20;99.90;;;;;;5147970;28;20066;-30
2022/01/04 11:25:28;;;;;;;16.00;12.63;;;14.20;99.90;;;;;;5147430;28;20051;-29
2022/01/04 11:28:14;;;;;;;17.23;13.60;;;14.20;99.90;;;;;;5148078;28;20050;-28
2022/01/04 11:31:03;;;;;;;17.10;12.43;;;14.10;99.90;;;;;;5147528;28;20054;-30
2022/01/04 11:33:51;;;;;;;14.80;12.23;;;14.10;99.90;;;;;;5162351;28;20047;-28
2022/01/04 11:36:30;;;;;;;17.57;15.03;;;14.10;99.90;;;;;;5148244;28;20074;-29
2022/01/04 11:39:34;;;;;;;16.20;13.17;;;14.10;99.90;;;;;;5147789;28;20055;-30
2022/01/04 11:42:08;;;;;;;20.00;14.53;;;14.10;99.90;;;;;;5146842;28;20047;-30
2022/01/04 11:44:43;;;;;;;;;;;14.10;99.90;;;;;;5148358;28;20051;-30
2022/01/04 11:47:18;;;;;;;17.47;13.53;;;14.10;99.90;;;;;;5147598;28;20008;-28
2022/01/04 11:50:10;;;;;;;14.10;11.83;;;14.10;99.90;;;;;;5147228;28;20149;-29
2022/01/04 11:52:48;;;;;;;14.07;11.77;;;14.10;99.90;;;;;;5147237;28;20043;-30
2022/01/04 11:55:29;;;;;;;15.50;12.53;;;14.10;99.90;;;;;;5146190;28;20043;-30
2022/01/04 11:58:14;;;;;;;17.23;12.33;;;14.10;99.90;;;;;;5147432;28;20050;-30
2022/01/04 12:01:00;;;;;;;17.40;13.80;;;14.10;99.90;;;;;;5146188;28;20130;-30
2022/01/04 12:03:42;;;;;;;16.90;14.50;;;14.10;99.90;;;;;;5146433;28;20059;-28
2022/01/04 12:06:17;;;;;;;17.90;15.20;;;14.10;99.90;;;;;;5162317;28;20070;-28
2022/01/04 12:08:51;;;;;;;18.23;14.63;;;14.10;99.90;;;;;;5147169;28;20138;-28
2022/01/04 12:11:26;;;;;;;15.97;12.57;;;14.10;99.90;;;;;;5145862;28;20059;-29
2022/01/04 12:13:58;;;;;;;19.33;13.57;;;14.10;99.90;;;;;;5147556;28;20077;-29
2022/01/04 12:16:33;;;;;;;16.10;13.75;;;14.10;99.90;;;;;;5146008;28;20503;-29
2022/01/04 12:19:05;;;;;;;17.70;14.37;;;14.10;99.90;;;;;;5147055;28;20395;-29
2022/01/04 12:22:00;;;;;;;18.47;14.00;;;14.10;99.90;;;;;;5155976;28;20042;-29
2022/01/04 12:24:45;;;;;;;17.80;12.77;;;14.20;99.90;;;;;;5163728;28;20047;-31
2022/01/04 12:27:19;;;;;;;17.03;13.50;;;14.20;99.90;;;;;;5147934;28;20046;-29
2022/01/04 12:29:50;;;;;;;17.13;12.70;;;14.20;99.90;;;;;;5174990;28;20045;-30
2022/01/04 12:32:24;;;;;;;15.25;13.65;;;14.20;99.90;;;;;;5167467;28;20061;-28
2022/01/04 12:35:03;;;;;;;18.00;14.35;;;14.20;99.90;;;;;;5184963;28;20049;-28
2022/01/04 12:37:36;;;;;;;20.27;15.97;;;14.20;99.90;;;;;;5183630;28;20538;-29
2022/01/04 12:40:08;;;;;;;18.20;14.97;;;14.20;99.90;;;;;;5183480;28;20108;-29
2022/01/04 12:42:42;;;;;;;18.00;15.70;;;14.20;99.90;;;;;;5184663;28;20052;-28
2022/01/04 12:45:18;;;;;;;16.77;13.50;;;14.20;99.90;;;;;;5183795;28;20045;-30
2022/01/04 12:47:49;;;;;;;19.90;15.23;;;14.10;99.90;;;;;;5167244;28;20069;-29
2022/01/04 12:50:24;;;;;;;18.63;14.87;;;14.10;99.90;;;;;;5185284;28;20128;-28
2022/01/04 12:52:55;;;;;;;19.57;16.87;;;14.10;99.90;;;;;;5170423;28;20073;-30
2022/01/04 12:55:26;;;;;;;20.27;16.77;;;14.10;99.90;;;;;;5186350;28;20466;-29
2022/01/04 12:57:57;;;;;;;20.33;16.90;;;14.10;99.90;;;;;;5186394;28;20415;-28
2022/01/04 13:00:28;;;;;;;19.17;16.80;;;14.20;99.90;;;;;;5186889;28;20176;-30
2022/01/04 13:02:59;;;;;;;18.23;16.23;;;14.10;99.90;;;;;;5186745;28;20091;-29
2022/01/04 13:05:30;;;;;;;19.13;14.90;;;14.10;99.90;;;;;;5185682;28;20487;-29
2022/01/04 13:08:01;;;;;;;22.80;17.57;;;14.10;99.90;;;;;;5185641;28;20045;-28
2022/01/04 13:10:32;;;;;;;20.00;17.33;;;14.10;99.90;;;;;;5168754;28;20058;-29
2022/01/04 13:13:03;;;;;;;18.50;14.53;;;14.10;99.90;;;;;;5186781;28;20045;-29
2022/01/04 13:15:34;;;;;;;17.30;14.47;;;14.10;99.90;;;;;;5186453;28;20042;-30
2022/01/04 13:18:05;;;;;;;18.37;15.13;;;14.10;99.90;;;;;;5186734;28;20038;-28
2022/01/04 13:20:36;;;;;;;18.80;15.87;;;14.10;99.90;;;;;;5185520;28;20053;-29
2022/01/04 13:23:08;;;;;;;22.17;17.83;;;14.00;99.90;;;;;;5185486;28;20052;-30
2022/01/04 13:25:39;;;;;;;23.93;18.30;;;14.00;99.90;;;;;;5186354;28;20050;-28
2022/01/04 13:28:10;;;;;;;27.87;22.70;;;14.00;99.90;;;;;;5187076;28;20465;-30
2022/01/04 13:30:46;;;;;;;27.10;21.83;;;14.00;99.90;;;;;;5185940;28;20116;-30